Arkansas City, Kansas
Current Conditions -  °F | °C
As of 10:54 PM on Wednesday 17 Dec 2014 (Local Time) from KWLD Reporting Station
Haze Haze  
Wind Chill: 25°   Ceiling: 500
Heat Index: 32°   Visibility: 4mi
Dew Point: 31°   Wind: 8mph
Humidity: 96%   Direction: 90°E
Pressure: 30.19"   Gusts: NA
Location:  37.06°N, 97.04°W
Report Text: KWLD 180454Z AUTO 09007KT 4SM BR BKN005 OVC026 00/M01 A3019 RMK AO2 SLP233 I1002 T00001006
Loading
Personal Weather Stations






























Interactive Weather Map New forecast layout! Learn more

10-Day Weather Forecast

Advertisements
Track Severe Weather on mobile